Time;durP1;ratioP1;P1;durP2;ratioP2;P2;SDS_P1;SDS_P2;PMS_P1;PMS_P2;Temp;Humidity;BMP_temperature;BMP_pressure;BME280_temperature;BME280_humidity;BME280_pressure;Samples;Min_cycle;Max_cycle;Signal;HPM_P1;HPM_P2
2023/09/13 00:00:54;;;;;;;8.77;6.03;;;;;;;21.26;100.00;97911.66;5055970;28;20208;-77
2023/09/13 00:03:20;;;;;;;6.83;6.13;;;;;;;21.09;100.00;97917.53;5055568;28;20305;-77
2023/09/13 00:05:47;;;;;;;6.77;6.03;;;;;;;21.04;100.00;97922.19;5056076;28;20212;-77
2023/09/13 00:08:13;;;;;;;7.60;6.43;;;;;;;20.68;100.00;97921.78;5055561;28;20719;-77
2023/09/13 00:10:39;;;;;;;8.20;6.10;;;;;;;20.71;100.00;97925.81;5055542;28;20672;-77
2023/09/13 00:13:06;;;;;;;6.93;6.13;;;;;;;20.67;100.00;97930.94;5055547;28;20660;-77
2023/09/13 00:15:32;;;;;;;8.83;7.00;;;;;;;20.65;100.00;97932.31;5055830;28;20205;-77
2023/09/13 00:17:58;;;;;;;7.50;6.80;;;;;;;20.59;100.00;97933.47;5055598;28;20229;-77
2023/09/13 00:20:27;;;;;;;7.60;6.27;;;;;;;20.63;100.00;97934.53;5055756;28;20217;-77
2023/09/13 00:22:53;;;;;;;7.53;6.83;;;;;;;20.56;100.00;97936.75;5055703;28;20288;-77
2023/09/13 00:25:20;;;;;;;7.60;6.77;;;;;;;20.51;100.00;97934.09;5055311;28;20544;-77
2023/09/13 00:27:46;;;;;;;8.47;6.53;;;;;;;20.44;100.00;97933.63;5055312;28;20727;-77
2023/09/13 00:30:13;;;;;;;7.87;6.80;;;;;;;20.45;100.00;97937.94;5055370;28;20669;-77
2023/09/13 00:32:39;;;;;;;7.63;6.93;;;;;;;20.38;100.00;97937.44;5055636;28;20232;-77
2023/09/13 00:35:06;;;;;;;7.50;6.77;;;;;;;20.29;100.00;97933.75;5056213;28;20212;-77
2023/09/13 00:37:32;;;;;;;7.37;6.67;;;;;;;20.28;100.00;97930.25;5055532;28;20235;-77
2023/09/13 00:39:59;;;;;;;7.57;6.90;;;;;;;20.35;100.00;97921.84;5055446;28;20205;-77
2023/09/13 00:42:25;;;;;;;8.00;7.20;;;;;;;20.35;100.00;97911.03;5055517;28;20205;-77
2023/09/13 00:44:51;;;;;;;8.43;5.90;;;;;;;20.44;100.00;97909.34;5055443;28;20205;-77
2023/09/13 00:47:18;;;;;;;8.43;6.20;;;;;;;20.27;100.00;97914.34;5055392;28;20217;-77
2023/09/13 00:49:47;;;;;;;6.63;6.03;;;;;;;20.16;100.00;97910.13;5055303;28;20205;-77
2023/09/13 00:52:14;;;;;;;6.20;5.60;;;;;;;20.21;100.00;97900.09;5055382;28;20205;-77
2023/09/13 00:54:40;;;;;;;9.07;5.73;;;;;;;20.19;100.00;97904.16;5054937;28;20212;-76
2023/09/13 00:57:07;;;;;;;6.70;6.00;;;;;;;20.07;100.00;97879.41;5055371;28;20209;-76
2023/09/13 00:59:34;;;;;;;5.90;5.30;;;;;;;20.07;100.00;97864.00;5055192;28;20205;-76
2023/09/13 01:02:01;;;;;;;5.83;5.03;;;;;;;20.11;100.00;97846.19;5054995;28;20212;-76
2023/09/13 01:04:28;;;;;;;7.47;5.83;;;;;;;19.97;100.00;97855.19;5054318;28;20201;-76
2023/09/13 01:06:54;;;;;;;7.27;6.00;;;;;;;19.85;100.00;97858.25;5054737;28;20566;-76
2023/09/13 01:09:21;;;;;;;7.47;6.37;;;;;;;19.88;100.00;97854.19;5054878;28;20201;-76
2023/09/13 01:11:48;;;;;;;7.20;6.43;;;;;;;19.85;100.00;97830.50;5054518;28;20217;-76
2023/09/13 01:14:15;;;;;;;7.50;6.80;;;;;;;19.82;100.00;97814.88;5054719;28;20209;-76
2023/09/13 01:16:52;;;;;;;7.07;6.37;;;;;;;19.91;100.00;97805.88;5054696;28;20213;-76
2023/09/13 01:19:43;;;;;;;8.43;7.63;;;;;;;19.84;100.00;97834.28;5054599;28;20209;-76
2023/09/13 01:22:26;;;;;;;8.83;7.53;;;;;;;19.89;100.00;97831.53;5054688;28;20208;-76
2023/09/13 01:25:11;;;;;;;7.80;7.10;;;;;;;19.88;100.00;97828.03;5037030;28;20201;-76
2023/09/13 01:27:41;;;;;;;8.40;7.43;;;;;;;19.94;100.00;97845.78;5054405;28;20221;-76
2023/09/13 01:30:09;;;;;;;8.00;6.83;;;;;;;19.93;100.00;97852.28;5054188;28;20194;-76
2023/09/13 01:32:36;;;;;;;7.50;6.90;;;;;;;20.01;100.00;97853.53;5054386;28;20209;-76
2023/09/13 01:35:03;;;;;;;7.73;6.93;;;;;;;19.92;100.00;97852.53;5054046;28;20209;-77
2023/09/13 01:37:32;;;;;;;7.93;7.10;;;;;;;19.88;100.00;97851.50;5053839;28;20315;-77
2023/09/13 01:39:58;;;;;;;7.43;6.80;;;;;;;19.78;100.00;97853.19;5054233;28;20577;-77
2023/09/13 01:42:25;;;;;;;7.50;6.80;;;;;;;19.73;100.00;97854.31;5054200;28;20209;-77
2023/09/13 01:44:52;;;;;;;8.23;6.90;;;;;;;19.68;100.00;97857.88;5054144;28;20205;-77
2023/09/13 01:47:19;;;;;;;7.30;6.60;;;;;;;19.73;100.00;97849.75;5053741;28;20741;-77
2023/09/13 01:49:47;;;;;;;7.20;6.50;;;;;;;19.68;100.00;97847.88;5053984;28;20209;-77
2023/09/13 01:52:13;;;;;;;6.90;6.30;;;;;;;19.68;100.00;97847.88;5053707;28;20566;-77
2023/09/13 01:54:40;;;;;;;7.60;6.37;;;;;;;19.68;100.00;97845.19;5053145;28;20517;-77
2023/09/13 01:57:06;;;;;;;7.23;6.30;;;;;;;19.60;100.00;97856.56;5053426;28;20738;-77
2023/09/13 01:59:33;;;;;;;8.97;7.03;;;;;;;19.58;100.00;97845.28;5053812;28;20275;-77
2023/09/13 02:02:00;;;;;;;7.27;6.67;;;;;;;19.58;100.00;97852.53;5053858;28;20205;-77
2023/09/13 02:04:31;;;;;;;7.17;6.57;;;;;;;19.50;100.00;97853.94;5053551;28;20800;-77
2023/09/13 02:06:58;;;;;;;8.00;7.17;;;;;;;19.55;100.00;97858.53;5053478;28;20633;-77
2023/09/13 02:09:24;;;;;;;6.67;6.07;;;;;;;19.56;100.00;97860.13;5053736;28;20202;-77
2023/09/13 02:11:51;;;;;;;7.97;6.60;;;;;;;19.53;100.00;97860.69;5053346;28;20209;-77
2023/09/13 02:14:17;;;;;;;6.80;6.10;;;;;;;19.41;100.00;97863.72;5053655;28;20209;-77
2023/09/13 02:16:43;;;;;;;7.00;6.40;;;;;;;19.43;100.00;97871.53;5053528;28;20201;-77
2023/09/13 02:19:10;;;;;;;7.17;6.10;;;;;;;19.44;100.00;97873.13;5053287;28;20232;-77
2023/09/13 02:21:36;;;;;;;6.73;6.00;;;;;;;19.31;100.00;97862.97;5053101;28;20672;-77
2023/09/13 02:24:03;;;;;;;6.60;6.00;;;;;;;19.37;100.00;97857.28;5053269;28;20209;-77
2023/09/13 02:26:30;;;;;;;8.00;5.40;;;;;;;19.31;100.00;97853.00;5053515;28;20255;-77
2023/09/13 02:28:57;;;;;;;5.50;5.00;;;;;;;19.29;100.00;97843.59;5053478;28;20225;-77
2023/09/13 02:31:25;;;;;;;5.63;5.13;;;;;;;19.29;100.00;97848.97;5053494;28;20213;-77
2023/09/13 02:33:52;;;;;;;6.27;5.67;;;;;;;19.30;100.00;97843.31;5053179;28;20600;-77
2023/09/13 02:36:18;;;;;;;6.13;5.63;;;;;;;19.29;100.00;97835.50;5053484;28;20209;-77
2023/09/13 02:38:45;;;;;;;5.73;5.23;;;;;;;19.28;100.00;97836.59;5053125;28;20235;-77
2023/09/13 02:41:11;;;;;;;5.70;5.20;;;;;;;19.28;100.00;97840.06;5053423;28;20205;-77
2023/09/13 02:43:40;;;;;;;5.97;5.50;;;;;;;19.32;100.00;97846.53;5053058;28;20686;-77
2023/09/13 02:46:06;;;;;;;6.10;5.43;;;;;;;19.37;100.00;97867.28;5053348;28;20209;-77
2023/09/13 02:48:33;;;;;;;6.07;5.47;;;;;;;19.34;100.00;97867.81;5053243;28;20221;-77
2023/09/13 02:50:59;;;;;;;6.33;5.80;;;;;;;19.37;100.00;97875.34;5053297;28;20205;-77
2023/09/13 02:53:25;;;;;;;6.50;6.00;;;;;;;19.35;100.00;97878.31;5053278;28;20216;-77
2023/09/13 02:55:52;;;;;;;5.87;5.27;;;;;;;19.35;100.00;97886.41;5053300;28;20207;-77
2023/09/13 02:58:18;;;;;;;6.57;5.97;;;;;;;19.36;100.00;97885.31;5052795;28;20233;-77
2023/09/13 03:00:44;;;;;;;5.63;5.10;;;;;;;19.18;100.00;97894.03;5053215;28;20208;-77
2023/09/13 03:03:11;;;;;;;5.97;5.30;;;;;;;19.23;100.00;97898.63;5053240;28;20211;-77
2023/09/13 03:05:37;;;;;;;6.40;5.80;;;;;;;19.25;100.00;97896.44;5053203;28;20690;-77
2023/09/13 03:08:05;;;;;;;7.47;5.30;;;;;;;19.25;100.00;97901.84;5056623;28;20231;-77
2023/09/13 03:10:33;;;;;;;6.67;5.93;;;;;;;19.30;100.00;97908.00;5056639;28;20209;-77
2023/09/13 03:12:59;;;;;;;6.37;5.77;;;;;;;19.33;100.00;97898.56;5056955;28;20216;-77
2023/09/13 03:15:26;;;;;;;5.90;5.30;;;;;;;19.27;100.00;97895.06;5056661;28;20209;-77
2023/09/13 03:17:52;;;;;;;6.67;5.37;;;;;;;19.25;100.00;97902.66;5056502;28;20712;-76
2023/09/13 03:20:18;;;;;;;5.63;5.03;;;;;;;19.15;100.00;97902.69;5056805;28;20208;-76
2023/09/13 03:22:45;;;;;;;5.53;5.13;;;;;;;19.10;100.00;97904.59;5056816;28;20216;-76
2023/09/13 03:25:11;;;;;;;6.33;5.57;;;;;;;19.13;100.00;97901.31;5056757;28;20211;-76
2023/09/13 03:27:37;;;;;;;4.57;4.27;;;;;;;19.11;100.00;97898.91;5056354;28;20730;-77
2023/09/13 03:30:04;;;;;;;4.87;4.57;;;;;;;19.23;100.00;97907.50;5056673;28;20201;-77
2023/09/13 03:32:30;;;;;;;5.13;4.73;;;;;;;19.09;100.00;97917.25;5056510;28;20216;-77
2023/09/13 03:34:57;;;;;;;5.13;4.63;;;;;;;19.10;100.00;97918.84;5056413;28;20205;-77
2023/09/13 03:37:23;;;;;;;5.20;4.70;;;;;;;19.16;100.00;97922.31;5056159;28;20236;-77
2023/09/13 03:39:50;;;;;;;4.83;4.43;;;;;;;19.17;100.00;97913.97;5055917;28;20564;-77
2023/09/13 03:42:16;;;;;;;4.83;4.43;;;;;;;19.18;100.00;97910.19;5055980;28;20686;-77
2023/09/13 03:44:42;;;;;;;4.70;4.30;;;;;;;18.92;100.00;97913.28;5056238;28;20296;-77
2023/09/13 03:47:09;;;;;;;4.87;4.37;;;;;;;18.94;100.00;97917.31;5056122;28;20205;-77
2023/09/13 03:49:35;;;;;;;6.53;4.77;;;;;;;18.95;100.00;97913.53;5055360;28;20203;-77
2023/09/13 03:52:02;;;;;;;5.40;4.87;;;;;;;18.93;100.00;97909.50;5055745;28;20209;-77
2023/09/13 03:54:29;;;;;;;4.57;4.10;;;;;;;18.92;100.00;97913.28;5055866;28;20205;-77
2023/09/13 03:56:57;;;;;;;6.10;4.57;;;;;;;18.97;100.00;97911.38;5055771;28;20205;-77
2023/09/13 03:59:24;;;;;;;5.07;4.57;;;;;;;19.02;100.00;97915.94;5055707;28;20232;-77
2023/09/13 04:01:50;;;;;;;5.00;4.50;;;;;;;18.95;100.00;97904.66;5055853;28;20304;-77
2023/09/13 04:04:16;;;;;;;4.83;4.43;;;;;;;18.96;100.00;97907.06;5055697;28;20209;-77
2023/09/13 04:06:44;;;;;;;4.90;4.40;;;;;;;18.90;100.00;97905.47;5055687;28;20208;-77
2023/09/13 04:09:10;;;;;;;5.00;4.60;;;;;;;18.91;100.00;97903.59;5055643;28;20225;-77
2023/09/13 04:11:36;;;;;;;5.40;4.90;;;;;;;18.84;100.00;97909.28;5055810;28;20201;-77
2023/09/13 04:14:04;;;;;;;5.40;4.90;;;;;;;18.89;100.00;97917.31;5055567;28;20205;-77
2023/09/13 04:16:30;;;;;;;5.50;5.10;;;;;;;18.90;100.00;97918.94;5054965;28;20278;-77
2023/09/13 04:18:56;;;;;;;5.90;5.30;;;;;;;18.94;100.00;97917.31;5056018;28;20229;-77
2023/09/13 04:21:23;;;;;;;5.20;4.70;;;;;;;18.94;100.00;97928.09;5055612;28;20209;-77
2023/09/13 04:23:49;;;;;;;5.13;4.73;;;;;;;18.99;100.00;97914.59;5055356;28;20294;-77
2023/09/13 04:26:21;;;;;;;4.90;4.50;;;;;;;19.01;100.00;97917.81;5055112;28;20581;-77
2023/09/13 04:28:47;;;;;;;5.67;4.90;;;;;;;18.90;100.00;97916.25;5055436;28;20308;-77
2023/09/13 04:31:13;;;;;;;5.77;5.03;;;;;;;18.97;100.00;97910.56;5055362;28;20205;-77
2023/09/13 04:33:47;;;;;;;6.30;5.10;;;;;;;18.95;100.00;97912.75;5055786;28;20224;-77
2023/09/13 04:36:14;;;;;;;7.37;4.97;;;;;;;18.96;100.00;97917.03;5054858;28;20252;-77
2023/09/13 04:38:40;;;;;;;5.47;5.00;;;;;;;19.03;100.00;97915.66;5054599;28;20225;-77
2023/09/13 04:41:13;;;;;;;5.40;5.00;;;;;;;19.09;100.00;97927.22;5054837;28;20209;-77
2023/09/13 04:43:39;;;;;;;5.67;5.17;;;;;;;19.11;100.00;97930.44;5054288;28;20230;-77
2023/09/13 04:46:06;;;;;;;5.73;5.23;;;;;;;19.08;100.00;97939.06;5054237;28;20205;-77
2023/09/13 04:48:32;;;;;;;4.97;4.53;;;;;;;19.18;100.00;97937.13;5054848;28;20229;-77
2023/09/13 04:50:58;;;;;;;4.97;4.57;;;;;;;19.18;100.00;97947.91;5054943;28;20209;-77
2023/09/13 04:53:25;;;;;;;5.03;4.63;;;;;;;19.08;100.00;97949.84;5054761;28;20205;-77
2023/09/13 04:55:52;;;;;;;5.57;5.07;;;;;;;19.15;100.00;97961.97;5054696;28;20213;-77
2023/09/13 04:58:18;;;;;;;4.93;4.47;;;;;;;19.16;100.00;97963.56;5054278;28;20248;-77
2023/09/13 05:00:44;;;;;;;4.73;4.43;;;;;;;19.15;100.00;97961.97;5054515;28;20201;-77
2023/09/13 05:03:11;;;;;;;5.40;4.90;;;;;;;19.12;100.00;97950.91;5054423;28;20201;-77
2023/09/13 05:05:40;;;;;;;5.17;4.77;;;;;;;19.21;100.00;97957.34;5054055;28;20212;-77
2023/09/13 05:08:06;;;;;;;5.13;4.53;;;;;;;19.15;100.00;97961.97;5054425;28;20233;-77
2023/09/13 05:10:33;;;;;;;5.17;4.70;;;;;;;19.11;100.00;97958.22;5054509;28;20201;-77
2023/09/13 05:13:00;;;;;;;5.73;5.13;;;;;;;19.00;100.00;97953.13;5054354;28;20208;-77
2023/09/13 05:15:26;;;;;;;5.87;5.27;;;;;;;19.02;100.00;97945.56;5053989;28;20201;-77
2023/09/13 05:17:54;;;;;;;5.57;5.07;;;;;;;18.97;100.00;97943.72;5053875;28;20722;-77
2023/09/13 05:20:20;;;;;;;5.07;4.57;;;;;;;19.07;100.00;97959.84;5054125;28;20229;-77
2023/09/13 05:22:47;;;;;;;6.87;4.40;;;;;;;19.19;100.00;97957.63;5054229;28;20215;-77
2023/09/13 05:25:13;;;;;;;5.03;4.60;;;;;;;19.24;100.00;97957.66;5054072;28;20212;-78
2023/09/13 05:27:39;;;;;;;6.20;4.80;;;;;;;19.37;100.00;97970.50;5053092;28;20592;-77
2023/09/13 05:30:06;;;;;;;5.27;4.80;;;;;;;19.28;100.00;97966.78;5053265;28;20560;-77
2023/09/13 05:32:33;;;;;;;5.87;5.27;;;;;;;19.24;100.00;97968.44;5053902;28;20606;-77
2023/09/13 05:34:59;;;;;;;5.50;5.00;;;;;;;19.34;100.00;97975.66;5053743;28;20665;-77
2023/09/13 05:37:26;;;;;;;5.13;4.73;;;;;;;19.43;100.00;97985.59;5053518;28;20229;-77
2023/09/13 05:39:52;;;;;;;5.43;4.93;;;;;;;19.43;100.00;97982.91;5053283;28;20225;-77
2023/09/13 05:42:19;;;;;;;5.97;4.70;;;;;;;19.40;100.00;97980.75;5053715;28;20205;-77
2023/09/13 05:44:45;;;;;;;6.03;4.67;;;;;;;19.48;100.00;97986.66;5054177;28;20209;-77
2023/09/13 05:47:12;;;;;;;5.80;5.17;;;;;;;19.38;100.00;97993.72;5053718;28;20597;-77
2023/09/13 05:49:38;;;;;;;5.47;5.03;;;;;;;19.42;100.00;97989.34;5053441;28;20308;-77
2023/09/13 05:52:05;;;;;;;7.00;5.53;;;;;;;19.32;100.00;97978.63;5053611;28;20664;-77
2023/09/13 05:54:31;;;;;;;9.03;6.00;;;;;;;19.29;100.00;97983.75;5053722;28;20212;-77
2023/09/13 05:56:57;;;;;;;7.07;5.37;;;;;;;19.25;100.00;97988.91;5053059;28;20219;-77
2023/09/13 05:59:24;;;;;;;5.10;4.70;;;;;;;19.34;100.00;97981.84;5052782;28;20370;-77
2023/09/13 06:01:51;;;;;;;6.13;5.20;;;;;;;19.35;100.00;97980.78;5053529;28;20209;-78
2023/09/13 06:04:18;;;;;;;5.47;5.00;;;;;;;19.36;100.00;97986.97;5053872;28;20211;-78
2023/09/13 06:06:44;;;;;;;6.00;5.40;;;;;;;19.41;100.00;97993.13;5053453;28;20231;-78
2023/09/13 06:09:10;;;;;;;5.80;5.03;;;;;;;19.46;100.00;97992.31;5053535;28;20607;-78
2023/09/13 06:11:37;;;;;;;5.17;4.67;;;;;;;19.43;100.00;98006.34;5053954;28;20205;-78
2023/09/13 06:14:08;;;;;;;5.63;4.97;;;;;;;19.41;100.00;98006.63;5053232;28;20207;-78
2023/09/13 06:16:34;;;;;;;5.10;4.63;;;;;;;19.38;100.00;98012.56;5053263;28;20205;-78
2023/09/13 06:19:01;;;;;;;5.67;4.43;;;;;;;19.43;100.00;98012.56;5053267;28;20233;-78
2023/09/13 06:21:27;;;;;;;5.90;5.43;;;;;;;19.41;100.00;98014.69;5053361;28;20205;-78
2023/09/13 06:23:53;;;;;;;5.37;4.97;;;;;;;19.32;100.00;98018.25;5053200;28;20209;-78
2023/09/13 06:26:20;;;;;;;5.00;4.60;;;;;;;19.33;100.00;98036.03;5053193;28;20287;-78
2023/09/13 06:28:46;;;;;;;5.07;4.67;;;;;;;19.36;100.00;98036.28;5053158;28;20242;-78
2023/09/13 06:31:13;;;;;;;5.20;4.70;;;;;;;19.27;100.00;98046.03;5053826;28;20664;-78
2023/09/13 06:33:39;;;;;;;4.93;4.50;;;;;;;19.36;100.00;98052.47;5053613;28;20209;-78
2023/09/13 06:36:06;;;;;;;5.37;4.87;;;;;;;19.28;100.00;98046.84;5053416;28;20206;-78
2023/09/13 06:38:32;;;;;;;4.57;4.17;;;;;;;19.31;100.00;98046.28;5053032;28;20225;-78
2023/09/13 06:40:59;;;;;;;5.57;4.67;;;;;;;19.33;100.00;98041.44;5055810;28;20212;-78
2023/09/13 06:43:25;;;;;;;4.50;4.10;;;;;;;19.33;100.00;98044.13;5057386;28;20212;-78
2023/09/13 06:45:52;;;;;;;7.40;4.87;;;;;;;19.35;100.00;98053.56;5057694;28;20205;-78
2023/09/13 06:48:19;;;;;;;5.37;4.87;;;;;;;19.42;100.00;98047.88;5057260;28;20225;-78
2023/09/13 06:50:45;;;;;;;5.33;4.83;;;;;;;19.51;100.00;98038.91;5057033;28;20205;-78
2023/09/13 06:53:12;;;;;;;5.77;4.70;;;;;;;19.62;100.00;98047.00;5057178;28;20205;-78
2023/09/13 06:55:38;;;;;;;7.50;5.20;;;;;;;19.66;100.00;98059.63;5057232;28;20315;-78
2023/09/13 06:58:06;;;;;;;4.80;4.37;;;;;;;19.76;100.00;98054.19;5056789;28;20233;-78
2023/09/13 07:00:33;;;;;;;4.77;4.37;;;;;;;19.85;100.00;98059.81;5057582;28;20233;-78
2023/09/13 07:03:04;;;;;;;7.03;4.33;;;;;;;19.93;100.00;98059.25;5056989;28;20235;-78
2023/09/13 07:05:31;;;;;;;4.30;3.93;;;;;;;19.95;100.00;98062.47;5057279;28;20185;-78
2023/09/13 07:07:58;;;;;;;4.40;4.00;;;;;;;20.08;100.00;98065.38;5056486;28;20221;-77
2023/09/13 07:10:24;;;;;;;5.17;4.73;;;;;;;20.20;100.00;98059.63;5056683;28;20205;-77
2023/09/13 07:12:51;;;;;;;4.03;3.53;;;;;;;20.21;100.00;98074.75;5056711;28;20205;-78
2023/09/13 07:15:18;;;;;;;3.80;3.50;;;;;;;20.13;100.00;98070.78;5056568;28;20228;-78
2023/09/13 07:17:44;;;;;;;4.37;4.07;;;;;;;20.11;100.00;98072.13;5056491;28;20247;-78
2023/09/13 07:20:12;;;;;;;4.00;3.57;;;;;;;20.04;100.00;98077.81;5056408;28;20221;-78
2023/09/13 07:22:40;;;;;;;4.37;4.00;;;;;;;20.14;100.00;98080.47;5056859;28;20653;-78
2023/09/13 07:25:07;;;;;;;5.77;4.23;;;;;;;20.05;100.00;98078.59;5056374;28;20213;-77
2023/09/13 07:27:34;;;;;;;4.23;3.80;;;;;;;20.09;100.00;98071.59;5055923;28;20716;-77
2023/09/13 07:30:00;;;;;;;4.20;3.80;;;;;;;20.20;100.00;98078.53;5056570;28;20251;-77
2023/09/13 07:32:27;;;;;;;4.47;4.03;;;;;;;20.10;100.00;98079.41;5056196;28;20679;-77
2023/09/13 07:34:54;;;;;;;4.07;3.77;;;;;;;20.11;100.00;98078.31;5056387;28;20633;-77
2023/09/13 07:37:20;;;;;;;4.40;4.07;;;;;;;20.18;100.00;98095.03;5055735;28;20712;-77
2023/09/13 07:39:47;;;;;;;4.93;4.10;;;;;;;20.13;100.00;98091.53;5056310;28;20225;-77
2023/09/13 07:42:13;;;;;;;3.97;3.67;;;;;;;20.20;100.00;98098.25;5056156;28;20281;-77
2023/09/13 07:44:39;;;;;;;5.43;3.80;;;;;;;20.30;100.00;98095.47;5055926;28;20576;-77
2023/09/13 07:47:06;;;;;;;3.83;3.53;;;;;;;20.39;100.00;98093.00;5055848;28;20683;-77
2023/09/13 07:49:32;;;;;;;4.23;3.90;;;;;;;20.39;100.00;98103.81;5055680;28;20212;-77
2023/09/13 07:51:58;;;;;;;7.20;6.20;;;;;;;20.42;100.00;98106.75;5054858;28;20219;-77
2023/09/13 07:54:25;;;;;;;4.20;3.40;;;;;;;20.49;100.00;98098.34;5056428;28;20212;-77
2023/09/13 07:56:51;;;;;;;3.70;3.40;;;;;;;20.42;100.00;98105.94;5055903;28;20201;-77
2023/09/13 07:59:18;;;;;;;5.17;3.30;;;;;;;20.34;100.00;98099.22;5055577;28;20707;-77
2023/09/13 08:01:45;;;;;;;4.27;3.83;;;;;;;20.33;100.00;98103.03;5056107;28;20313;-78
2023/09/13 08:04:11;;;;;;;3.67;3.47;;;;;;;20.34;100.00;98098.44;5056050;28;20205;-78
2023/09/13 08:06:41;;;;;;;3.50;3.20;;;;;;;20.37;100.00;98100.56;5055832;28;20214;-78
2023/09/13 08:09:08;;;;;;;5.10;3.77;;;;;;;20.29;100.00;98109.25;5055815;28;20225;-78
2023/09/13 08:11:34;;;;;;;4.93;4.13;;;;;;;20.19;100.00;98101.22;5055644;28;20205;-77
2023/09/13 08:14:01;;;;;;;4.50;3.60;;;;;;;20.19;100.00;98104.72;5055701;28;20288;-77
2023/09/13 08:16:27;;;;;;;3.93;3.53;;;;;;;20.25;100.00;98102.81;5055717;28;20208;-77
2023/09/13 08:18:53;;;;;;;4.20;3.80;;;;;;;20.25;100.00;98113.63;5055719;28;20225;-77
2023/09/13 08:21:20;;;;;;;5.30;3.53;;;;;;;20.28;100.00;98123.84;5055744;28;20228;-77
2023/09/13 08:23:46;;;;;;;3.73;3.43;;;;;;;20.36;100.00;98128.66;5055648;28;20209;-77
2023/09/13 08:26:12;;;;;;;3.70;3.40;;;;;;;20.40;100.00;98127.03;5055602;28;20205;-77
2023/09/13 08:28:39;;;;;;;3.80;3.50;;;;;;;20.22;100.00;98123.09;5055210;28;20222;-77
2023/09/13 08:31:05;;;;;;;4.87;3.80;;;;;;;20.46;100.00;98124.00;5055114;28;20209;-77
2023/09/13 08:33:31;;;;;;;6.10;3.30;;;;;;;20.28;100.00;98127.34;5054948;28;20680;-77
2023/09/13 08:35:58;;;;;;;6.70;3.77;;;;;;;20.19;100.00;98133.63;5055271;28;20232;-73
2023/09/13 08:38:24;;;;;;;4.20;3.80;;;;;;;20.13;100.00;98127.44;5055007;28;20258;-73
2023/09/13 08:40:54;;;;;;;4.57;3.53;;;;;;;20.23;100.00;98130.09;5055202;28;20225;-73
2023/09/13 08:43:21;;;;;;;3.97;3.57;;;;;;;20.24;100.00;98141.69;5054901;28;20213;-73
2023/09/13 08:45:48;;;;;;;3.67;3.20;;;;;;;20.43;100.00;98146.16;5054948;28;20212;-72
2023/09/13 08:48:18;;;;;;;3.53;3.23;;;;;;;20.33;100.00;98148.94;5054474;28;20225;-71
2023/09/13 08:50:46;;;;;;;3.80;3.40;;;;;;;20.31;100.00;98140.31;5055017;28;20197;-72
2023/09/13 08:53:14;;;;;;;5.37;3.00;;;;;;;20.38;100.00;98145.38;5054711;28;20664;-75
2023/09/13 08:55:42;;;;;;;4.83;3.60;;;;;;;20.05;100.00;98148.75;5054592;28;20209;-71
2023/09/13 08:58:09;;;;;;;5.33;3.50;;;;;;;20.05;100.00;98149.59;5054615;28;20229;-71
2023/09/13 09:00:38;;;;;;;5.07;3.40;;;;;;;20.05;100.00;98154.16;5054406;28;20225;-72
2023/09/13 09:03:06;;;;;;;3.80;3.37;;;;;;;20.05;100.00;98162.25;5054940;28;20215;-72
2023/09/13 09:05:34;;;;;;;3.90;3.60;;;;;;;20.12;100.00;98162.81;5054810;28;20212;-72
2023/09/13 09:08:04;;;;;;;4.33;4.00;;;;;;;20.13;100.00;98162.53;5054555;28;20225;-73
2023/09/13 09:10:32;;;;;;;4.40;4.00;;;;;;;20.15;100.00;98162.25;5054060;28;20201;-72
2023/09/13 09:12:59;;;;;;;4.73;4.30;;;;;;;20.21;100.00;98161.16;5054315;28;20215;-72
2023/09/13 09:15:27;;;;;;;4.00;3.70;;;;;;;20.31;100.00;98169.19;5054641;28;20208;-72
2023/09/13 09:17:55;;;;;;;5.47;4.07;;;;;;;20.29;100.00;98163.25;5054327;28;20221;-72
2023/09/13 09:20:24;;;;;;;4.30;3.80;;;;;;;20.21;100.00;98164.66;5054387;28;20320;-73
2023/09/13 09:22:50;;;;;;;3.90;3.60;;;;;;;20.10;100.00;98159.56;5054396;28;20205;-73
2023/09/13 09:25:17;;;;;;;5.60;4.00;;;;;;;20.13;100.00;98159.03;5054056;28;20544;-72
2023/09/13 09:27:44;;;;;;;4.30;3.90;;;;;;;20.11;100.00;98170.09;5053727;28;20235;-71
2023/09/13 09:30:14;;;;;;;4.43;3.70;;;;;;;20.14;100.00;98169.56;5036613;28;20205;-71
2023/09/13 09:32:42;;;;;;;4.13;3.73;;;;;;;20.09;100.00;98168.75;5054210;28;20288;-72
2023/09/13 09:35:09;;;;;;;3.53;3.23;;;;;;;20.23;100.00;98175.16;5053511;28;20345;-72
2023/09/13 09:37:36;;;;;;;3.70;3.30;;;;;;;20.44;100.00;98174.78;5053795;28;20233;-72
2023/09/13 09:40:11;;;;;;;3.70;3.40;;;;;;;20.45;100.00;98178.28;5054073;28;20236;-72
2023/09/13 09:42:38;;;;;;;3.77;3.40;;;;;;;20.54;100.00;98177.44;5053850;28;20283;-72
2023/09/13 09:45:05;;;;;;;4.70;3.90;;;;;;;20.51;100.00;98177.16;5053822;28;20201;-72
2023/09/13 09:47:37;;;;;;;3.97;3.67;;;;;;;20.54;100.00;98174.75;5053549;28;20604;-72
2023/09/13 09:50:04;;;;;;;5.27;3.63;;;;;;;20.73;100.00;98175.69;5053612;28;20197;-72
2023/09/13 09:52:31;;;;;;;4.03;3.70;;;;;;;20.76;100.00;98177.81;5053737;28;20251;-72
2023/09/13 09:54:57;;;;;;;3.80;3.50;;;;;;;20.77;100.00;98176.75;5053771;28;20205;-72
2023/09/13 09:57:25;;;;;;;3.87;3.57;;;;;;;20.70;100.00;98178.16;5035548;28;20311;-72
2023/09/13 09:59:52;;;;;;;4.00;3.33;;;;;;;20.67;100.00;98179.50;5053730;28;20213;-72
2023/09/13 10:02:26;;;;;;;4.10;3.80;;;;;;;20.78;100.00;98183.75;5053488;28;20211;-72
2023/09/13 10:04:53;;;;;;;4.17;3.87;;;;;;;20.65;100.00;98184.38;5053695;28;20280;-72
2023/09/13 10:07:20;;;;;;;3.97;3.57;;;;;;;20.77;100.00;98190.25;5053425;28;20230;-72
2023/09/13 10:09:48;;;;;;;4.20;3.80;;;;;;;20.49;100.00;98187.47;5053766;28;20203;-72
2023/09/13 10:12:15;;;;;;;4.57;4.17;;;;;;;20.56;100.00;98187.94;5053273;28;20205;-72
2023/09/13 10:14:45;;;;;;;4.27;3.87;;;;;;;20.70;100.00;98178.16;5052960;28;20624;-74
2023/09/13 10:17:12;;;;;;;4.17;3.87;;;;;;;20.80;100.00;98188.88;5053204;28;20574;-72
2023/09/13 10:19:39;;;;;;;4.70;4.20;;;;;;;20.91;100.00;98185.03;5053042;28;20209;-72
2023/09/13 10:22:06;;;;;;;3.93;3.63;;;;;;;20.75;100.00;98184.31;5053713;28;20201;-72
2023/09/13 10:24:55;;;;;;;3.80;3.50;;;;;;;20.95;100.00;98192.31;5053534;28;20211;-72
2023/09/13 10:27:24;;;;;;;3.97;3.67;;;;;;;21.09;100.00;98182.47;5053244;28;20225;-72
2023/09/13 10:29:57;;;;;;;3.57;3.37;;;;;;;21.07;100.00;98189.25;5052872;28;20232;-72
2023/09/13 10:32:31;;;;;;;4.23;3.30;;;;;;;21.33;100.00;98187.94;5052966;28;20189;-72
2023/09/13 10:35:02;;;;;;;5.23;3.40;;;;;;;21.24;100.00;98178.81;5052995;28;20208;-72
2023/09/13 10:37:50;;;;;;;4.00;3.60;;;;;;;21.06;100.00;98190.31;5052812;28;20263;-72
2023/09/13 10:40:36;;;;;;;3.73;3.33;;;;;;;21.16;100.00;98190.28;5052455;28;20228;-72
2023/09/13 10:43:03;;;;;;;4.47;3.37;;;;;;;21.13;100.00;98183.53;5052905;28;20193;-72
2023/09/13 10:45:30;;;;;;;4.07;3.67;;;;;;;21.24;100.00;98178.81;5053094;28;20263;-72
2023/09/13 10:47:59;;;;;;;4.77;3.57;;;;;;;21.04;100.00;98179.81;5053107;28;20229;-73
2023/09/13 10:50:27;;;;;;;3.50;3.20;;;;;;;21.17;100.00;98178.34;5052612;28;20566;-72
2023/09/13 10:52:54;;;;;;;5.07;3.63;;;;;;;21.40;100.00;98183.81;5052797;28;20201;-72
2023/09/13 10:55:20;;;;;;;3.80;3.20;;;;;;;21.36;100.00;98179.25;5052615;28;20209;-75
2023/09/13 10:57:48;;;;;;;3.83;3.53;;;;;;;21.32;100.00;98184.44;5052535;28;20776;-73
2023/09/13 11:00:15;;;;;;;3.80;3.50;;;;;;;21.11;100.00;98184.91;5052901;28;20225;-72
2023/09/13 11:02:43;;;;;;;5.13;3.83;;;;;;;21.14;100.00;98178.91;5053062;28;20308;-72
2023/09/13 11:05:14;;;;;;;3.50;3.17;;;;;;;21.41;100.00;98190.03;5053113;28;20201;-73
2023/09/13 11:07:46;;;;;;;3.67;3.37;;;;;;;21.56;100.00;98181.78;5052646;28;20600;-73
2023/09/13 11:10:18;;;;;;;5.83;3.80;;;;;;;21.60;100.00;98189.03;5051849;28;20414;-73
2023/09/13 11:12:48;;;;;;;3.60;3.03;;;;;;;21.49;100.00;98186.72;5052687;28;20777;-73
2023/09/13 11:15:27;;;;;;;3.20;3.00;;;;;;;22.07;100.00;98182.88;5052773;28;20194;-74
2023/09/13 11:17:55;;;;;;;3.70;3.00;;;;;;;21.84;100.00;98189.09;5052933;28;20229;-73
2023/09/13 11:20:32;;;;;;;3.97;3.60;;;;;;;21.77;100.00;98188.59;5052657;28;20625;-73
2023/09/13 11:23:18;;;;;;;3.87;3.27;;;;;;;22.02;100.00;98183.72;5052446;28;20232;-73
2023/09/13 11:25:53;;;;;;;3.67;3.30;;;;;;;21.80;100.00;98191.53;5053053;28;20186;-73